sensor_id;sensor_type;location;lat;lon;timestamp;pressure;altitude;pressure_sealevel;temperature;humidity
61113;BME280;47184;57.998;56.184;2023-04-30T00:00:22;100310.50;;;10.99;27.77
61113;BME280;47184;57.998;56.184;2023-04-30T00:02:48;100304.53;;;10.97;27.45
61113;BME280;47184;57.998;56.184;2023-04-30T00:05:14;100304.06;;;11.01;27.73
61113;BME280;47184;57.998;56.184;2023-04-30T00:07:40;100301.13;;;11.04;27.63
61113;BME280;47184;57.998;56.184;2023-04-30T00:10:10;100246.97;;;10.74;27.69
61113;BME280;47184;57.998;56.184;2023-04-30T00:12:37;100311.78;;;11.21;27.78
61113;BME280;47184;57.998;56.184;2023-04-30T00:15:04;100312.66;;;11.29;27.72
61113;BME280;47184;57.998;56.184;2023-04-30T00:17:32;100315.00;;;11.32;27.34
61113;BME280;47184;57.998;56.184;2023-04-30T00:20:00;100312.19;;;11.34;27.47
61113;BME280;47184;57.998;56.184;2023-04-30T00:22:27;100317.69;;;11.40;27.24
61113;BME280;47184;57.998;56.184;2023-04-30T00:24:53;100318.34;;;11.43;27.80
61113;BME280;47184;57.998;56.184;2023-04-30T00:27:19;100279.91;;;11.22;27.51
61113;BME280;47184;57.998;56.184;2023-04-30T00:29:45;100301.81;;;11.40;27.50
61113;BME280;47184;57.998;56.184;2023-04-30T00:32:11;100294.69;;;11.41;27.10
61113;BME280;47184;57.998;56.184;2023-04-30T00:34:37;100292.06;;;11.41;27.19
61113;BME280;47184;57.998;56.184;2023-04-30T00:37:03;100298.16;;;11.41;27.42
61113;BME280;47184;57.998;56.184;2023-04-30T00:39:29;100297.50;;;11.39;27.47
61113;BME280;47184;57.998;56.184;2023-04-30T00:41:55;100300.81;;;11.41;27.35
61113;BME280;47184;57.998;56.184;2023-04-30T00:44:22;100300.09;;;11.23;27.81
61113;BME280;47184;57.998;56.184;2023-04-30T00:46:48;100297.63;;;11.30;27.54
61113;BME280;47184;57.998;56.184;2023-04-30T00:49:14;100278.56;;;11.18;27.30
61113;BME280;47184;57.998;56.184;2023-04-30T00:51:40;100306.22;;;11.32;27.29
61113;BME280;47184;57.998;56.184;2023-04-30T00:54:07;100303.56;;;11.24;27.52
61113;BME280;47184;57.998;56.184;2023-04-30T00:56:34;100290.16;;;11.25;27.00
61113;BME280;47184;57.998;56.184;2023-04-30T00:59:01;100291.84;;;11.34;27.12
61113;BME280;47184;57.998;56.184;2023-04-30T01:01:27;100293.38;;;11.37;27.08
61113;BME280;47184;57.998;56.184;2023-04-30T01:03:54;100284.09;;;11.33;27.58
61113;BME280;47184;57.998;56.184;2023-04-30T01:06:20;100297.81;;;11.36;26.90
61113;BME280;47184;57.998;56.184;2023-04-30T01:08:47;100296.66;;;11.31;27.22
61113;BME280;47184;57.998;56.184;2023-04-30T01:14:27;100294.75;;;11.15;27.29
61113;BME280;47184;57.998;56.184;2023-04-30T01:19:42;100299.47;;;11.37;27.25
61113;BME280;47184;57.998;56.184;2023-04-30T01:28:01;100258.22;;;11.10;27.60
61113;BME280;47184;57.998;56.184;2023-04-30T01:30:32;100287.25;;;11.36;26.75
61113;BME280;47184;57.998;56.184;2023-04-30T01:32:58;100237.16;;;11.27;27.47
61113;BME280;47184;57.998;56.184;2023-04-30T01:35:51;100281.28;;;11.34;27.43
61113;BME280;47184;57.998;56.184;2023-04-30T01:38:49;100293.38;;;11.37;26.76
61113;BME280;47184;57.998;56.184;2023-04-30T01:41:32;100293.91;;;11.49;27.23
61113;BME280;47184;57.998;56.184;2023-04-30T01:47:00;100302.88;;;11.56;26.91
61113;BME280;47184;57.998;56.184;2023-04-30T01:49:41;100295.06;;;11.54;26.68
61113;BME280;47184;57.998;56.184;2023-04-30T01:53:08;100292.44;;;11.54;26.76
61113;BME280;47184;57.998;56.184;2023-04-30T01:55:19;100284.28;;;11.39;27.28
61113;BME280;47184;57.998;56.184;2023-04-30T01:57:55;100266.00;;;11.12;27.41
61113;BME280;47184;57.998;56.184;2023-04-30T02:00:25;100297.66;;;11.04;27.67
61113;BME280;47184;57.998;56.184;2023-04-30T02:02:54;100306.75;;;11.09;27.19
61113;BME280;47184;57.998;56.184;2023-04-30T02:05:21;100302.50;;;11.16;27.97
61113;BME280;47184;57.998;56.184;2023-04-30T02:07:49;100312.56;;;11.13;27.98
61113;BME280;47184;57.998;56.184;2023-04-30T02:10:19;100296.28;;;11.26;27.82
61113;BME280;47184;57.998;56.184;2023-04-30T02:12:46;100304.22;;;11.26;27.41
61113;BME280;47184;57.998;56.184;2023-04-30T02:15:14;100290.06;;;11.35;27.87
61113;BME280;47184;57.998;56.184;2023-04-30T02:17:41;100293.09;;;11.48;27.46
61113;BME280;47184;57.998;56.184;2023-04-30T02:20:08;100278.66;;;11.43;27.22
61113;BME280;47184;57.998;56.184;2023-04-30T02:22:35;100287.28;;;11.45;27.49
61113;BME280;47184;57.998;56.184;2023-04-30T02:25:02;100268.13;;;11.08;28.19
61113;BME280;47184;57.998;56.184;2023-04-30T02:27:32;100306.03;;;11.25;28.33
61113;BME280;47184;57.998;56.184;2023-04-30T02:29:59;100287.56;;;11.33;28.42
61113;BME280;47184;57.998;56.184;2023-04-30T02:32:32;100295.19;;;11.36;27.65
61113;BME280;47184;57.998;56.184;2023-04-30T02:34:58;100301.97;;;11.39;28.04
61113;BME280;47184;57.998;56.184;2023-04-30T02:37:25;100293.59;;;11.52;27.83
61113;BME280;47184;57.998;56.184;2023-04-30T02:39:52;100290.97;;;11.60;27.82
61113;BME280;47184;57.998;56.184;2023-04-30T02:42:18;100294.03;;;11.81;27.65
61113;BME280;47184;57.998;56.184;2023-04-30T02:44:44;100286.91;;;11.82;27.55
61113;BME280;47184;57.998;56.184;2023-04-30T02:47:11;100302.34;;;11.95;27.49
61113;BME280;47184;57.998;56.184;2023-04-30T02:49:37;100315.44;;;12.04;27.46
61113;BME280;47184;57.998;56.184;2023-04-30T02:52:03;100298.41;;;12.15;27.45
61113;BME280;47184;57.998;56.184;2023-04-30T02:54:29;100291.47;;;12.22;27.62
61113;BME280;47184;57.998;56.184;2023-04-30T02:56:55;100313.66;;;12.29;27.21
61113;BME280;47184;57.998;56.184;2023-04-30T02:59:21;100305.72;;;12.37;27.38
61113;BME280;47184;57.998;56.184;2023-04-30T03:01:47;100311.84;;;12.46;27.28
61113;BME280;47184;57.998;56.184;2023-04-30T03:04:13;100309.53;;;12.35;27.32
61113;BME280;47184;57.998;56.184;2023-04-30T03:06:40;100300.56;;;12.36;27.29
61113;BME280;47184;57.998;56.184;2023-04-30T03:09:06;100306.22;;;12.33;27.45
61113;BME280;47184;57.998;56.184;2023-04-30T03:11:32;100302.25;;;12.21;27.72
61113;BME280;47184;57.998;56.184;2023-04-30T03:14:02;100297.25;;;12.18;27.86
61113;BME280;47184;57.998;56.184;2023-04-30T03:16:29;100311.66;;;12.31;27.62
61113;BME280;47184;57.998;56.184;2023-04-30T03:18:56;100312.66;;;12.38;27.39
61113;BME280;47184;57.998;56.184;2023-04-30T03:21:22;100313.00;;;12.52;27.42
61113;BME280;47184;57.998;56.184;2023-04-30T03:23:48;100288.50;;;12.42;27.60
61113;BME280;47184;57.998;56.184;2023-04-30T03:26:14;100306.22;;;12.49;27.66
61113;BME280;47184;57.998;56.184;2023-04-30T03:28:40;100310.84;;;12.47;27.77
61113;BME280;47184;57.998;56.184;2023-04-30T03:31:06;100297.44;;;12.32;27.50
61113;BME280;47184;57.998;56.184;2023-04-30T03:33:32;100302.06;;;12.22;27.88
61113;BME280;47184;57.998;56.184;2023-04-30T03:35:59;100283.81;;;11.95;28.45
61113;BME280;47184;57.998;56.184;2023-04-30T03:38:25;100285.06;;;11.74;29.37
61113;BME280;47184;57.998;56.184;2023-04-30T03:40:52;100269.16;;;11.58;29.90
61113;BME280;47184;57.998;56.184;2023-04-30T03:43:18;100263.16;;;11.39;30.14
61113;BME280;47184;57.998;56.184;2023-04-30T03:45:44;100231.03;;;11.34;30.15
61113;BME280;47184;57.998;56.184;2023-04-30T03:48:12;100248.97;;;11.49;30.78
61113;BME280;47184;57.998;56.184;2023-04-30T03:50:38;100251.91;;;11.46;30.74
61113;BME280;47184;57.998;56.184;2023-04-30T03:53:04;100224.78;;;11.35;30.82
61113;BME280;47184;57.998;56.184;2023-04-30T03:55:31;100263.75;;;11.76;30.79
61113;BME280;47184;57.998;56.184;2023-04-30T03:57:58;100271.03;;;11.82;30.54
61113;BME280;47184;57.998;56.184;2023-04-30T04:00:25;100258.53;;;11.92;30.40
61113;BME280;47184;57.998;56.184;2023-04-30T04:02:53;100244.97;;;12.03;30.59
61113;BME280;47184;57.998;56.184;2023-04-30T04:05:20;100251.25;;;12.35;30.17
61113;BME280;47184;57.998;56.184;2023-04-30T04:07:46;100245.31;;;12.41;29.83
61113;BME280;47184;57.998;56.184;2023-04-30T04:10:12;100274.91;;;12.61;29.77
61113;BME280;47184;57.998;56.184;2023-04-30T04:12:38;100277.91;;;12.74;29.86
61113;BME280;47184;57.998;56.184;2023-04-30T04:15:05;100276.16;;;12.98;29.59
61113;BME280;47184;57.998;56.184;2023-04-30T04:17:32;100241.31;;;13.17;29.46
61113;BME280;47184;57.998;56.184;2023-04-30T04:19:59;100267.63;;;13.74;29.00
61113;BME280;47184;57.998;56.184;2023-04-30T04:22:26;100254.13;;;14.07;28.58
61113;BME280;47184;57.998;56.184;2023-04-30T04:24:53;100254.75;;;14.17;28.84
61113;BME280;47184;57.998;56.184;2023-04-30T04:27:22;100213.75;;;13.34;29.10
61113;BME280;47184;57.998;56.184;2023-04-30T04:29:49;100231.69;;;13.32;29.28
61113;BME280;47184;57.998;56.184;2023-04-30T04:32:16;100268.13;;;13.38;29.32
61113;BME280;47184;57.998;56.184;2023-04-30T04:34:43;100272.59;;;13.38;29.01
61113;BME280;47184;57.998;56.184;2023-04-30T04:37:11;100279.41;;;13.41;28.93
61113;BME280;47184;57.998;56.184;2023-04-30T04:39:37;100281.56;;;13.76;28.79
61113;BME280;47184;57.998;56.184;2023-04-30T04:42:04;100279.56;;;14.24;28.49
61113;BME280;47184;57.998;56.184;2023-04-30T04:44:32;100283.53;;;14.51;28.16
61113;BME280;47184;57.998;56.184;2023-04-30T04:46:58;100282.84;;;14.72;27.54
61113;BME280;47184;57.998;56.184;2023-04-30T04:49:25;100276.47;;;14.96;27.37
61113;BME280;47184;57.998;56.184;2023-04-30T04:51:52;100291.25;;;14.99;27.31
61113;BME280;47184;57.998;56.184;2023-04-30T04:54:19;100269.34;;;14.59;27.81
61113;BME280;47184;57.998;56.184;2023-04-30T04:56:46;100282.63;;;14.36;27.81
61113;BME280;47184;57.998;56.184;2023-04-30T04:59:17;100255.31;;;14.27;28.03
61113;BME280;47184;57.998;56.184;2023-04-30T05:01:44;100278.53;;;14.48;28.15
61113;BME280;47184;57.998;56.184;2023-04-30T05:04:11;100256.78;;;14.53;27.82
61113;BME280;47184;57.998;56.184;2023-04-30T05:06:38;100267.09;;;14.85;27.35
61113;BME280;47184;57.998;56.184;2023-04-30T05:09:06;100313.91;;;15.24;27.45
61113;BME280;47184;57.998;56.184;2023-04-30T05:11:35;100326.47;;;15.45;27.34
61113;BME280;47184;57.998;56.184;2023-04-30T05:14:01;100288.03;;;15.33;27.20
61113;BME280;47184;57.998;56.184;2023-04-30T05:16:27;100315.91;;;15.67;27.00
61113;BME280;47184;57.998;56.184;2023-04-30T05:18:53;100321.50;;;15.42;27.28
61113;BME280;47184;57.998;56.184;2023-04-30T05:21:19;100316.72;;;15.38;27.59
61113;BME280;47184;57.998;56.184;2023-04-30T05:23:46;100327.09;;;15.32;27.44
61113;BME280;47184;57.998;56.184;2023-04-30T05:26:12;100319.13;;;15.32;27.66
61113;BME280;47184;57.998;56.184;2023-04-30T05:28:38;100307.47;;;15.33;27.60
61113;BME280;47184;57.998;56.184;2023-04-30T05:31:04;100294.34;;;15.17;27.42
61113;BME280;47184;57.998;56.184;2023-04-30T05:33:30;100284.00;;;15.07;27.94
61113;BME280;47184;57.998;56.184;2023-04-30T05:35:58;100276.97;;;14.77;28.33
61113;BME280;47184;57.998;56.184;2023-04-30T05:38:24;100298.81;;;14.87;28.65
61113;BME280;47184;57.998;56.184;2023-04-30T05:40:50;100288.75;;;14.82;28.59
61113;BME280;47184;57.998;56.184;2023-04-30T05:43:16;100292.69;;;14.86;28.77
61113;BME280;47184;57.998;56.184;2023-04-30T05:45:42;100285.34;;;14.89;28.39
61113;BME280;47184;57.998;56.184;2023-04-30T05:48:09;100279.56;;;14.85;28.52
61113;BME280;47184;57.998;56.184;2023-04-30T05:50:35;100256.44;;;14.85;28.48
61113;BME280;47184;57.998;56.184;2023-04-30T05:53:01;100263.31;;;14.42;29.33
61113;BME280;47184;57.998;56.184;2023-04-30T05:55:27;100265.22;;;14.33;29.08
61113;BME280;47184;57.998;56.184;2023-04-30T05:57:53;100267.91;;;13.79;30.19
61113;BME280;47184;57.998;56.184;2023-04-30T06:00:19;100292.16;;;13.37;31.05
61113;BME280;47184;57.998;56.184;2023-04-30T06:02:45;100305.97;;;13.08;31.47
61113;BME280;47184;57.998;56.184;2023-04-30T06:05:12;100290.41;;;13.05;31.67
61113;BME280;47184;57.998;56.184;2023-04-30T06:07:38;100294.25;;;13.02;31.82
61113;BME280;47184;57.998;56.184;2023-04-30T06:10:04;100276.69;;;12.93;31.72
61113;BME280;47184;57.998;56.184;2023-04-30T06:12:32;100304.94;;;13.33;31.47
61113;BME280;47184;57.998;56.184;2023-04-30T06:14:59;100298.03;;;13.63;31.39
61113;BME280;47184;57.998;56.184;2023-04-30T06:17:25;100238.00;;;13.62;30.99
61113;BME280;47184;57.998;56.184;2023-04-30T06:19:51;100274.50;;;14.15;30.58
61113;BME280;47184;57.998;56.184;2023-04-30T06:22:17;100277.88;;;14.08;30.78
61113;BME280;47184;57.998;56.184;2023-04-30T06:24:44;100292.84;;;14.01;31.32
61113;BME280;47184;57.998;56.184;2023-04-30T06:27:10;100284.28;;;14.14;30.84
61113;BME280;47184;57.998;56.184;2023-04-30T06:29:36;100287.13;;;14.35;30.71
61113;BME280;47184;57.998;56.184;2023-04-30T06:32:02;100275.31;;;14.15;31.52
61113;BME280;47184;57.998;56.184;2023-04-30T06:34:28;100289.56;;;14.45;31.42
61113;BME280;47184;57.998;56.184;2023-04-30T06:36:54;100294.59;;;14.78;30.86
61113;BME280;47184;57.998;56.184;2023-04-30T06:39:21;100298.38;;;15.13;30.34
61113;BME280;47184;57.998;56.184;2023-04-30T06:41:47;100301.78;;;15.36;30.55
61113;BME280;47184;57.998;56.184;2023-04-30T06:44:14;100295.06;;;15.70;30.08
61113;BME280;47184;57.998;56.184;2023-04-30T06:46:41;100311.00;;;16.43;29.31
61113;BME280;47184;57.998;56.184;2023-04-30T06:49:07;100304.28;;;17.31;28.35
61113;BME280;47184;57.998;56.184;2023-04-30T06:51:33;100298.97;;;17.38;28.03
61113;BME280;47184;57.998;56.184;2023-04-30T06:53:59;100300.09;;;17.63;27.95
61113;BME280;47184;57.998;56.184;2023-04-30T06:56:25;100292.28;;;18.10;27.62
61113;BME280;47184;57.998;56.184;2023-04-30T06:58:52;100274.22;;;18.38;27.03
61113;BME280;47184;57.998;56.184;2023-04-30T07:01:18;100287.41;;;18.86;26.79
61113;BME280;47184;57.998;56.184;2023-04-30T07:03:44;100270.69;;;19.04;26.56
61113;BME280;47184;57.998;56.184;2023-04-30T07:06:11;100277.53;;;18.73;26.79
61113;BME280;47184;57.998;56.184;2023-04-30T07:08:37;100244.75;;;17.85;27.25
61113;BME280;47184;57.998;56.184;2023-04-30T07:11:06;100273.84;;;17.19;28.35
61113;BME280;47184;57.998;56.184;2023-04-30T07:13:32;100271.28;;;17.04;28.32
61113;BME280;47184;57.998;56.184;2023-04-30T07:15:58;100263.66;;;17.01;28.48
61113;BME280;47184;57.998;56.184;2023-04-30T07:18:24;100256.63;;;16.93;28.63
61113;BME280;47184;57.998;56.184;2023-04-30T07:20:50;100260.88;;;16.31;29.34
61113;BME280;47184;57.998;56.184;2023-04-30T07:23:16;100265.31;;;16.03;29.46
61113;BME280;47184;57.998;56.184;2023-04-30T07:25:42;100272.09;;;16.05;29.66
61113;BME280;47184;57.998;56.184;2023-04-30T07:28:09;100289.81;;;16.13;29.82
61113;BME280;47184;57.998;56.184;2023-04-30T07:30:35;100254.13;;;16.35;29.49
61113;BME280;47184;57.998;56.184;2023-04-30T07:33:01;100272.50;;;17.43;28.52
61113;BME280;47184;57.998;56.184;2023-04-30T07:35:27;100266.59;;;18.35;27.72
61113;BME280;47184;57.998;56.184;2023-04-30T07:37:53;100238.22;;;18.80;27.04
61113;BME280;47184;57.998;56.184;2023-04-30T07:40:20;100237.66;;;19.30;26.56
61113;BME280;47184;57.998;56.184;2023-04-30T07:42:46;100251.84;;;19.89;26.29
61113;BME280;47184;57.998;56.184;2023-04-30T07:45:12;100228.44;;;20.59;25.55
61113;BME280;47184;57.998;56.184;2023-04-30T07:47:38;100223.47;;;20.31;25.57
61113;BME280;47184;57.998;56.184;2023-04-30T07:50:05;100237.34;;;19.65;26.28
61113;BME280;47184;57.998;56.184;2023-04-30T07:52:32;100221.44;;;19.18;26.78
61113;BME280;47184;57.998;56.184;2023-04-30T07:54:58;100219.72;;;18.66;27.16
61113;BME280;47184;57.998;56.184;2023-04-30T07:57:24;100229.38;;;18.53;27.55
61113;BME280;47184;57.998;56.184;2023-04-30T07:59:53;100214.34;;;18.59;27.39
61113;BME280;47184;57.998;56.184;2023-04-30T08:02:19;100232.03;;;18.60;27.76
61113;BME280;47184;57.998;56.184;2023-04-30T08:04:45;100230.41;;;18.79;27.25
61113;BME280;47184;57.998;56.184;2023-04-30T08:07:15;100210.13;;;19.23;27.18
61113;BME280;47184;57.998;56.184;2023-04-30T08:09:41;100168.84;;;19.30;27.06
61113;BME280;47184;57.998;56.184;2023-04-30T08:12:08;100186.09;;;19.48;26.67
61113;BME280;47184;57.998;56.184;2023-04-30T08:14:34;100189.38;;;19.05;27.27
61113;BME280;47184;57.998;56.184;2023-04-30T08:17:00;100169.91;;;18.45;27.91
61113;BME280;47184;57.998;56.184;2023-04-30T08:19:28;100203.25;;;17.89;28.71
61113;BME280;47184;57.998;56.184;2023-04-30T08:21:54;100183.19;;;17.45;29.35
61113;BME280;47184;57.998;56.184;2023-04-30T08:24:21;100181.72;;;17.43;29.67
61113;BME280;47184;57.998;56.184;2023-04-30T08:26:47;100187.00;;;17.77;29.33
61113;BME280;47184;57.998;56.184;2023-04-30T08:29:13;100190.72;;;18.43;28.85
61113;BME280;47184;57.998;56.184;2023-04-30T08:31:39;100214.75;;;18.83;28.21
61113;BME280;47184;57.998;56.184;2023-04-30T08:34:06;100217.63;;;18.81;28.40
61113;BME280;47184;57.998;56.184;2023-04-30T08:36:32;100216.97;;;18.99;28.11
61113;BME280;47184;57.998;56.184;2023-04-30T08:38:58;100175.69;;;18.28;28.69
61113;BME280;47184;57.998;56.184;2023-04-30T08:41:31;100144.41;;;17.56;29.53
61113;BME280;47184;57.998;56.184;2023-04-30T08:44:01;100155.63;;;17.38;29.94
61113;BME280;47184;57.998;56.184;2023-04-30T08:46:30;100133.28;;;17.39;30.01
61113;BME280;47184;57.998;56.184;2023-04-30T08:48:57;100163.66;;;17.31;30.08
61113;BME280;47184;57.998;56.184;2023-04-30T08:51:24;100157.53;;;17.51;29.91
61113;BME280;47184;57.998;56.184;2023-04-30T08:53:54;100167.59;;;17.49;30.09
61113;BME280;47184;57.998;56.184;2023-04-30T08:56:20;100177.00;;;17.31;30.16
61113;BME280;47184;57.998;56.184;2023-04-30T08:58:46;100186.44;;;17.27;30.35
61113;BME280;47184;57.998;56.184;2023-04-30T09:01:12;100200.38;;;17.29;30.35
61113;BME280;47184;57.998;56.184;2023-04-30T09:03:38;100225.28;;;17.50;30.45
61113;BME280;47184;57.998;56.184;2023-04-30T09:06:05;100262.72;;;17.63;30.59
61113;BME280;47184;57.998;56.184;2023-04-30T09:08:45;100227.13;;;17.43;31.33
61113;BME280;47184;57.998;56.184;2023-04-30T09:13:51;100219.59;;;17.66;31.38
61113;BME280;47184;57.998;56.184;2023-04-30T09:16:19;100223.84;;;18.22;30.63
61113;BME280;47184;57.998;56.184;2023-04-30T09:18:45;100221.75;;;18.84;29.90
61113;BME280;47184;57.998;56.184;2023-04-30T09:21:13;100214.78;;;19.34;29.30
61113;BME280;47184;57.998;56.184;2023-04-30T09:23:56;100198.50;;;19.81;29.02
61113;BME280;47184;57.998;56.184;2023-04-30T09:26:36;100168.94;;;19.62;28.77
61113;BME280;47184;57.998;56.184;2023-04-30T09:29:04;100186.38;;;20.03;28.43
61113;BME280;47184;57.998;56.184;2023-04-30T09:31:38;100180.00;;;20.47;28.37
61113;BME280;47184;57.998;56.184;2023-04-30T09:34:05;100184.97;;;20.25;28.13
61113;BME280;47184;57.998;56.184;2023-04-30T09:36:32;100171.09;;;19.78;28.66
61113;BME280;47184;57.998;56.184;2023-04-30T09:39:08;100154.88;;;19.67;28.89
61113;BME280;47184;57.998;56.184;2023-04-30T09:41:36;100121.03;;;19.41;28.86
61113;BME280;47184;57.998;56.184;2023-04-30T09:44:03;100162.94;;;19.22;29.19
61113;BME280;47184;57.998;56.184;2023-04-30T09:46:33;100167.88;;;19.25;29.11
61113;BME280;47184;57.998;56.184;2023-04-30T09:49:04;100159.38;;;19.35;28.99
61113;BME280;47184;57.998;56.184;2023-04-30T09:51:31;100167.53;;;19.46;29.10
61113;BME280;47184;57.998;56.184;2023-04-30T09:53:57;100204.31;;;19.71;28.85
61113;BME280;47184;57.998;56.184;2023-04-30T09:56:25;100233.38;;;19.74;28.68
61113;BME280;47184;57.998;56.184;2023-04-30T09:58:53;100253.50;;;19.83;28.72
61113;BME280;47184;57.998;56.184;2023-04-30T10:01:21;100259.88;;;19.89;28.75
61113;BME280;47184;57.998;56.184;2023-04-30T10:03:48;100267.94;;;19.82;28.62
61113;BME280;47184;57.998;56.184;2023-04-30T10:06:15;100256.25;;;19.76;28.75
61113;BME280;47184;57.998;56.184;2023-04-30T10:08:50;100261.84;;;19.68;28.80
61113;BME280;47184;57.998;56.184;2023-04-30T10:11:19;100272.38;;;19.63;29.08
61113;BME280;47184;57.998;56.184;2023-04-30T10:14:11;100276.47;;;19.59;29.05
61113;BME280;47184;57.998;56.184;2023-04-30T10:19:24;100253.16;;;19.73;28.89
61113;BME280;47184;57.998;56.184;2023-04-30T10:21:51;100255.22;;;19.71;28.85
61113;BME280;47184;57.998;56.184;2023-04-30T10:24:19;100254.03;;;19.60;29.12
61113;BME280;47184;57.998;56.184;2023-04-30T10:26:46;100263.59;;;19.36;29.13
61113;BME280;47184;57.998;56.184;2023-04-30T10:29:14;100275.19;;;19.23;29.43
61113;BME280;47184;57.998;56.184;2023-04-30T10:31:43;100242.56;;;18.75;29.62
61113;BME280;47184;57.998;56.184;2023-04-30T10:34:44;100266.00;;;18.66;30.09
61113;BME280;47184;57.998;56.184;2023-04-30T10:37:30;100251.38;;;18.49;30.12
61113;BME280;47184;57.998;56.184;2023-04-30T10:39:59;100222.59;;;18.24;30.15
61113;BME280;47184;57.998;56.184;2023-04-30T10:42:30;100253.44;;;18.47;30.31
61113;BME280;47184;57.998;56.184;2023-04-30T10:44:56;100239.66;;;18.37;30.31
61113;BME280;47184;57.998;56.184;2023-04-30T10:47:28;100226.09;;;18.25;30.37
61113;BME280;47184;57.998;56.184;2023-04-30T10:50:07;100249.53;;;18.36;30.67
61113;BME280;47184;57.998;56.184;2023-04-30T10:52:33;100236.78;;;18.31;30.63
61113;BME280;47184;57.998;56.184;2023-04-30T10:55:08;100226.50;;;18.15;30.96
61113;BME280;47184;57.998;56.184;2023-04-30T10:57:41;100247.47;;;18.18;30.98
61113;BME280;47184;57.998;56.184;2023-04-30T11:02:44;100266.19;;;18.31;31.05
61113;BME280;47184;57.998;56.184;2023-04-30T11:05:15;100271.53;;;18.31;31.07
61113;BME280;47184;57.998;56.184;2023-04-30T11:07:47;100260.44;;;18.21;31.13
61113;BME280;47184;57.998;56.184;2023-04-30T11:10:14;100261.88;;;18.17;31.35
61113;BME280;47184;57.998;56.184;2023-04-30T11:12:40;100270.69;;;18.11;31.42
61113;BME280;47184;57.998;56.184;2023-04-30T11:15:13;100269.66;;;18.12;31.21
61113;BME280;47184;57.998;56.184;2023-04-30T11:17:43;100280.34;;;18.05;31.39
61113;BME280;47184;57.998;56.184;2023-04-30T11:20:14;100272.75;;;18.09;31.46
61113;BME280;47184;57.998;56.184;2023-04-30T11:22:43;100285.88;;;18.04;31.58
61113;BME280;47184;57.998;56.184;2023-04-30T11:25:17;100291.56;;;17.74;31.99
61113;BME280;47184;57.998;56.184;2023-04-30T11:27:45;100302.16;;;17.61;32.23
61113;BME280;47184;57.998;56.184;2023-04-30T11:30:13;100284.03;;;17.50;32.46
61113;BME280;47184;57.998;56.184;2023-04-30T11:32:42;100274.16;;;17.44;32.72
61113;BME280;47184;57.998;56.184;2023-04-30T11:35:10;100296.06;;;17.32;32.82
61113;BME280;47184;57.998;56.184;2023-04-30T11:37:38;100287.53;;;17.09;33.57
61113;BME280;47184;57.998;56.184;2023-04-30T11:40:06;100287.63;;;16.66;34.60
61113;BME280;47184;57.998;56.184;2023-04-30T11:42:33;100311.94;;;16.56;35.14
61113;BME280;47184;57.998;56.184;2023-04-30T11:45:11;100306.28;;;16.23;35.90
61113;BME280;47184;57.998;56.184;2023-04-30T11:47:46;100314.34;;;15.72;36.76
61113;BME280;47184;57.998;56.184;2023-04-30T11:50:18;100319.31;;;15.31;38.07
61113;BME280;47184;57.998;56.184;2023-04-30T11:52:49;100319.75;;;15.05;38.65
61113;BME280;47184;57.998;56.184;2023-04-30T11:55:18;100315.59;;;14.88;39.26
61113;BME280;47184;57.998;56.184;2023-04-30T11:57:46;100342.63;;;14.76;39.84
61113;BME280;47184;57.998;56.184;2023-04-30T12:00:19;100350.97;;;14.50;40.83
61113;BME280;47184;57.998;56.184;2023-04-30T12:02:47;100359.34;;;14.08;42.25
61113;BME280;47184;57.998;56.184;2023-04-30T12:05:18;100354.06;;;13.69;43.61
61113;BME280;47184;57.998;56.184;2023-04-30T12:07:49;100380.16;;;13.57;44.86
61113;BME280;47184;57.998;56.184;2023-04-30T12:10:19;100389.13;;;13.48;45.04
61113;BME280;47184;57.998;56.184;2023-04-30T12:12:50;100389.78;;;13.42;45.09
61113;BME280;47184;57.998;56.184;2023-04-30T12:15:19;100354.53;;;13.25;45.39
61113;BME280;47184;57.998;56.184;2023-04-30T12:17:52;100361.97;;;13.21;45.26
61113;BME280;47184;57.998;56.184;2023-04-30T12:20:20;100379.50;;;13.47;45.17
61113;BME280;47184;57.998;56.184;2023-04-30T12:22:47;100393.75;;;13.54;44.83
61113;BME280;47184;57.998;56.184;2023-04-30T12:25:16;100410.75;;;13.84;44.64
61113;BME280;47184;57.998;56.184;2023-04-30T12:27:48;100412.94;;;14.11;45.10
61113;BME280;47184;57.998;56.184;2023-04-30T12:30:18;100410.53;;;14.33;45.42
61113;BME280;47184;57.998;56.184;2023-04-30T12:32:47;100411.41;;;14.48;45.09
61113;BME280;47184;57.998;56.184;2023-04-30T12:35:16;100392.19;;;14.69;44.81
61113;BME280;47184;57.998;56.184;2023-04-30T12:37:43;100399.19;;;15.08;44.47
61113;BME280;47184;57.998;56.184;2023-04-30T12:40:11;100410.50;;;15.25;43.96
61113;BME280;47184;57.998;56.184;2023-04-30T12:42:38;100412.06;;;15.19;44.24
61113;BME280;47184;57.998;56.184;2023-04-30T12:45:05;100415.88;;;15.17;43.99
61113;BME280;47184;57.998;56.184;2023-04-30T12:47:31;100394.41;;;15.03;43.60
61113;BME280;47184;57.998;56.184;2023-04-30T12:49:58;100406.88;;;15.03;43.70
61113;BME280;47184;57.998;56.184;2023-04-30T12:52:25;100401.78;;;14.93;44.09
61113;BME280;47184;57.998;56.184;2023-04-30T12:54:51;100401.69;;;14.86;44.20
61113;BME280;47184;57.998;56.184;2023-04-30T12:57:19;100401.22;;;14.83;43.66
61113;BME280;47184;57.998;56.184;2023-04-30T13:02:14;100406.34;;;14.84;43.35
61113;BME280;47184;57.998;56.184;2023-04-30T13:04:41;100403.88;;;14.83;43.78
61113;BME280;47184;57.998;56.184;2023-04-30T13:07:11;100410.44;;;15.10;43.52
61113;BME280;47184;57.998;56.184;2023-04-30T13:09:37;100391.66;;;15.11;43.21